Time;durP1;ratioP1;P1;durP2;ratioP2;P2;SDS_P1;SDS_P2;PMS_P1;PMS_P2;Temp;Humidity;BMP_temperature;BMP_pressure;BME280_temperature;BME280_humidity;BME280_pressure;Samples;Min_cycle;Max_cycle;Signal;HPM_P1;HPM_P2
2021/01/01 05:36:35;;;;;;;18.23;12.15;;;;;;;2.28;79.41;95536.41;5724345;23;20061;-80
2021/01/01 05:39:06;;;;;;;18.95;11.80;;;;;;;2.28;79.21;95543.31;4905590;29;20061;-77
2021/01/01 05:41:38;;;;;;;17.65;12.27;;;;;;;2.27;79.27;95545.06;4905926;29;20060;-80
2021/01/01 05:44:10;;;;;;;17.85;11.85;;;;;;;2.28;79.49;95551.03;4905699;29;20048;-80
2021/01/01 05:46:38;;;;;;;13.25;8.77;;;;;;;2.29;79.18;95550.84;4904976;29;20068;-80
2021/01/01 05:49:04;;;;;;;17.02;11.63;;;;;;;2.32;79.26;95542.84;4905156;29;20056;-79
2021/01/01 05:58:44;;;;;;;16.30;10.27;;;;;;;2.39;78.95;95554.13;4923275;29;20080;-81
2021/01/01 06:08:00;;;;;;;16.65;11.77;;;;;;;2.37;79.27;95558.63;5920893;23;20029;-79
2021/01/01 06:10:27;;;;;;;18.50;11.05;;;;;;;2.39;78.87;95559.25;4900109;29;20052;-81
2021/01/01 06:13:00;;;;;;;17.05;11.20;;;;;;;2.41;79.04;95556.53;4900228;29;20509;-80
2021/01/01 06:15:35;;;;;;;15.68;10.27;;;;;;;2.42;79.35;95558.16;4900326;29;20497;-80
2021/01/01 06:18:05;;;;;;;16.15;10.57;;;;;;;2.43;78.98;95558.00;4899867;29;20049;-80
2021/01/01 06:20:32;;;;;;;15.15;10.88;;;;;;;2.44;78.81;95559.59;4900023;29;20061;-80
2021/01/01 06:23:01;;;;;;;16.30;11.73;;;;;;;2.47;78.89;95566.19;4900957;29;20056;-82
2021/01/01 06:25:29;;;;;;;18.67;10.77;;;;;;;2.48;79.20;95563.47;4902591;29;20061;-83
2021/01/01 06:33:17;;;;;;;15.65;10.50;;;;;;;2.50;78.87;95581.34;5832810;23;20427;-80
2021/01/01 06:35:44;;;;;;;18.05;10.77;;;;;;;2.53;78.83;95585.38;4904134;29;20060;-80
2021/01/01 06:38:11;;;;;;;16.42;10.65;;;;;;;2.53;79.06;95595.66;4904493;29;20053;-80
2021/01/01 06:40:38;;;;;;;15.45;10.55;;;;;;;2.53;79.03;95590.50;4904188;29;20052;-79
2021/01/01 06:43:06;;;;;;;16.38;10.80;;;;;;;2.55;79.02;95593.75;4904545;29;20064;-80
2021/01/01 06:45:41;;;;;;;18.63;11.65;;;;;;;2.55;79.55;95591.97;4904071;29;20056;-80
2021/01/01 06:48:10;;;;;;;15.32;10.27;;;;;;;2.57;79.39;95604.69;4904063;29;20063;-80
2021/01/01 06:50:38;;;;;;;15.65;10.35;;;;;;;2.56;79.26;95605.63;4903604;29;20056;-80
2021/01/01 06:53:08;;;;;;;18.13;11.38;;;;;;;2.57;79.24;95612.41;4903961;29;20053;-80
2021/01/01 06:55:37;;;;;;;17.13;11.52;;;;;;;2.58;78.85;95601.97;4904472;29;20063;-80
2021/01/01 06:58:04;;;;;;;14.82;11.23;;;;;;;2.59;78.87;95610.50;4904114;29;20107;-80
2021/01/01 07:00:53;;;;;;;19.05;11.88;;;;;;;2.58;79.21;95601.97;4904052;29;20052;-79
2021/01/01 07:03:32;;;;;;;17.52;11.93;;;;;;;2.59;78.81;95605.34;4904062;29;20045;-80
2021/01/01 07:06:33;;;;;;;16.95;11.50;;;;;;;2.59;79.00;95611.28;4903999;29;20480;-79
2021/01/01 07:09:00;;;;;;;18.88;11.10;;;;;;;2.61;78.49;95619.66;4904256;29;20052;-79
2021/01/01 07:11:39;;;;;;;16.73;11.05;;;;;;;2.60;78.63;95623.22;4903684;29;20064;-79
2021/01/01 07:14:08;;;;;;;18.80;10.98;;;;;;;2.61;78.82;95618.88;4904376;29;20083;-80
2021/01/01 07:16:37;;;;;;;19.25;10.43;;;;;;;2.61;78.97;95624.81;4904092;29;20057;-80
2021/01/01 07:19:04;;;;;;;16.75;10.98;;;;;;;2.63;78.92;95632.38;4903820;29;20049;-79
2021/01/01 07:21:31;;;;;;;16.77;11.63;;;;;;;2.63;78.73;95634.97;4904305;29;20091;-80
2021/01/01 07:23:58;;;;;;;16.67;11.00;;;;;;;2.62;78.92;95636.75;4904453;29;20052;-79
2021/01/01 07:26:28;;;;;;;17.80;11.75;;;;;;;2.63;78.92;95637.53;4904432;29;20056;-80
2021/01/01 07:28:58;;;;;;;17.20;10.82;;;;;;;2.61;79.13;95642.84;4903877;29;20058;-80
2021/01/01 07:31:25;;;;;;;17.60;11.20;;;;;;;2.61;79.14;95649.75;4903613;29;20056;-79
2021/01/01 07:33:56;;;;;;;18.45;11.35;;;;;;;2.60;78.77;95653.28;4903749;29;20061;-80
2021/01/01 07:36:23;;;;;;;19.13;12.95;;;;;;;2.62;78.95;95646.22;4903642;29;20052;-80
2021/01/01 07:38:50;;;;;;;17.63;11.20;;;;;;;2.62;78.79;95657.34;4903526;29;20056;-79
2021/01/01 07:41:19;;;;;;;16.95;10.63;;;;;;;2.64;79.07;95663.09;4903979;29;20432;-79
2021/01/01 07:43:49;;;;;;;17.42;10.70;;;;;;;2.67;78.92;95664.59;4902835;29;20087;-79
2021/01/01 07:46:17;;;;;;;15.25;10.00;;;;;;;2.65;78.91;95662.16;4903627;29;20055;-80
2021/01/01 07:48:44;;;;;;;18.27;11.38;;;;;;;2.64;79.05;95672.59;4903799;29;20057;-79
2021/01/01 07:51:11;;;;;;;18.38;11.63;;;;;;;2.62;78.89;95666.81;4903394;29;20056;-80
2021/01/01 07:53:38;;;;;;;17.52;10.68;;;;;;;2.61;78.89;95672.94;4903529;29;20055;-79
2021/01/01 07:56:07;;;;;;;16.85;10.85;;;;;;;2.63;79.27;95673.59;4903068;29;20049;-80
2021/01/01 07:58:34;;;;;;;17.08;11.02;;;;;;;2.66;79.26;95683.56;4903303;29;20058;-80
2021/01/01 08:01:03;;;;;;;17.35;10.48;;;;;;;2.67;79.11;95680.03;4904201;29;20055;-79
2021/01/01 08:03:32;;;;;;;15.48;10.32;;;;;;;2.68;79.20;95690.16;4903779;29;20108;-80
2021/01/01 08:06:01;;;;;;;16.73;10.75;;;;;;;2.68;79.08;95690.16;4903832;29;20143;-79
2021/01/01 08:08:28;;;;;;;15.85;9.98;;;;;;;2.67;78.73;95687.78;4903411;29;20528;-80
2021/01/01 08:10:56;;;;;;;17.92;10.68;;;;;;;2.68;79.12;95691.94;4903137;29;20053;-79
2021/01/01 08:13:24;;;;;;;17.33;10.82;;;;;;;2.70;79.05;95695.16;4902968;29;20116;-80
2021/01/01 08:15:52;;;;;;;15.45;10.30;;;;;;;2.71;78.99;95696.78;4903293;29;20063;-80
2021/01/01 08:18:20;;;;;;;15.88;10.40;;;;;;;2.72;79.07;95695.81;4903417;29;20425;-79
2021/01/01 08:20:49;;;;;;;17.83;10.85;;;;;;;2.73;79.13;95689.69;4903536;29;20071;-80
2021/01/01 08:23:17;;;;;;;16.73;10.52;;;;;;;2.75;78.66;95690.34;4903254;29;20063;-79
2021/01/01 08:25:46;;;;;;;17.05;11.18;;;;;;;2.75;78.74;95700.66;4902767;29;20053;-80
2021/01/01 08:28:16;;;;;;;17.00;10.93;;;;;;;2.75;78.67;95708.38;4903410;29;20531;-79
2021/01/01 08:30:43;;;;;;;16.83;10.02;;;;;;;2.76;78.74;95709.22;4902476;29;20177;-80
2021/01/01 08:33:11;;;;;;;17.73;10.73;;;;;;;2.78;78.82;95712.44;4902315;29;20056;-80
2021/01/01 08:35:38;;;;;;;16.45;10.20;;;;;;;2.78;78.44;95707.28;4903214;29;20469;-80
2021/01/01 08:38:19;;;;;;;21.30;13.10;;;;;;;2.77;78.94;95709.03;4903236;29;20544;-79
2021/01/01 08:40:53;;;;;;;19.30;11.48;;;;;;;2.78;78.95;95702.94;4903135;29;20064;-80
2021/01/01 08:43:20;;;;;;;19.45;12.25;;;;;;;2.79;79.01;95714.03;4903790;29;20056;-80
2021/01/01 08:45:46;;;;;;;20.08;12.30;;;;;;;2.78;78.71;95720.97;4902960;29;20059;-80
2021/01/01 08:48:14;;;;;;;20.58;12.95;;;;;;;2.79;78.81;95719.19;4904133;29;20061;-79
2021/01/01 08:50:46;;;;;;;19.75;13.38;;;;;;;2.80;78.87;95721.63;4902557;29;20056;-80
2021/01/01 08:53:14;;;;;;;23.48;13.07;;;;;;;2.82;78.95;95721.44;4902489;29;20085;-79
2021/01/01 08:55:43;;;;;;;19.40;13.05;;;;;;;2.84;79.14;95722.09;4903067;29;20053;-80
2021/01/01 08:58:11;;;;;;;18.85;13.43;;;;;;;2.85;78.93;95729.69;4902092;29;20135;-80
2021/01/01 09:00:39;;;;;;;20.27;12.35;;;;;;;2.85;78.71;95721.16;4903678;29;20052;-80
2021/01/01 09:03:06;;;;;;;22.17;11.90;;;;;;;2.87;78.72;95734.69;4902660;29;20053;-80
2021/01/01 09:05:34;;;;;;;16.48;10.93;;;;;;;2.87;78.67;95738.06;4903993;29;20523;-80
2021/01/01 09:08:09;;;;;;;15.20;10.48;;;;;;;2.89;79.09;95743.06;4906186;29;20064;-80
2021/01/01 09:10:37;;;;;;;20.20;11.45;;;;;;;2.89;78.84;95735.34;4906435;29;20048;-80
2021/01/01 09:13:15;;;;;;;16.85;10.95;;;;;;;2.91;79.30;95742.88;4907354;29;20055;-79
2021/01/01 09:15:42;;;;;;;18.42;12.27;;;;;;;2.91;78.73;95748.88;4907475;29;20497;-80
2021/01/01 09:18:10;;;;;;;16.25;10.07;;;;;;;2.92;78.57;95749.66;4906205;29;20048;-80
2021/01/01 09:20:40;;;;;;;16.80;10.57;;;;;;;2.92;78.41;95754.81;4906135;29;20051;-80
2021/01/01 09:23:07;;;;;;;14.20;9.65;;;;;;;2.92;78.38;95754.81;4907163;29;20087;-80
2021/01/01 09:25:35;;;;;;;25.20;15.60;;;;;;;2.91;78.67;95764.31;4905824;29;20052;-80
2021/01/01 09:28:02;;;;;;;19.25;11.63;;;;;;;2.91;77.97;95756.59;4906219;29;20108;-80
2021/01/01 09:30:33;;;;;;;12.68;9.23;;;;;;;2.89;77.95;95767.03;4905651;29;20052;-80
2021/01/01 09:33:01;;;;;;;13.30;8.68;;;;;;;2.90;78.02;95760.13;4905762;29;20052;-79
2021/01/01 09:35:30;;;;;;;16.80;9.82;;;;;;;2.87;78.08;95774.13;4906347;29;20104;-79
2021/01/01 09:37:58;;;;;;;13.80;9.32;;;;;;;2.85;78.46;95765.75;4906437;29;20611;-80
2021/01/01 09:40:26;;;;;;;16.17;9.52;;;;;;;2.85;78.02;95770.88;4905980;29;20052;-80
2021/01/01 09:42:56;;;;;;;15.30;10.20;;;;;;;2.84;78.29;95763.31;4906133;29;20485;-80
2021/01/01 09:45:23;;;;;;;16.33;10.30;;;;;;;2.83;78.86;95770.22;4905609;29;20064;-80
2021/01/01 09:47:51;;;;;;;16.27;10.32;;;;;;;2.83;79.06;95766.84;4905813;29;20114;-80
2021/01/01 09:50:17;;;;;;;15.15;10.10;;;;;;;2.82;78.71;95771.22;4905413;29;20489;-80
2021/01/01 09:52:44;;;;;;;17.15;12.07;;;;;;;2.81;78.48;95776.50;4908447;29;20059;-79
2021/01/01 09:55:11;;;;;;;16.83;10.70;;;;;;;2.79;78.70;95776.66;4914991;29;20057;-80
2021/01/01 09:57:38;;;;;;;16.40;11.48;;;;;;;2.79;79.03;95771.50;4907800;29;20050;-80
2021/01/01 10:00:07;;;;;;;16.52;10.30;;;;;;;2.80;79.00;95773.13;4911320;29;20044;-79
2021/01/01 10:02:34;;;;;;;15.82;10.68;;;;;;;2.82;78.80;95776.34;4908463;29;20048;-80
2021/01/01 10:05:01;;;;;;;16.38;9.25;;;;;;;2.84;78.63;95773.63;4906825;29;20053;-79
2021/01/01 10:07:29;;;;;;;14.35;10.18;;;;;;;2.84;78.53;95781.34;4906421;29;20072;-78
2021/01/01 10:09:56;;;;;;;13.68;9.82;;;;;;;2.85;78.93;95773.47;4905567;29;20063;-80
2021/01/01 10:12:24;;;;;;;14.52;9.40;;;;;;;2.87;78.58;95781.84;4905638;29;20060;-79
2021/01/01 10:14:54;;;;;;;14.30;9.18;;;;;;;2.90;78.69;95783.31;4904858;29;20090;-80
2021/01/01 10:17:22;;;;;;;13.55;9.25;;;;;;;2.90;78.46;95788.47;4905326;29;20044;-78
2021/01/01 10:19:48;;;;;;;12.40;8.38;;;;;;;2.91;78.18;95790.09;4905029;29;20224;-80
2021/01/01 10:22:16;;;;;;;11.30;7.72;;;;;;;2.88;77.98;95785.22;4905609;29;20048;-79
2021/01/01 10:24:43;;;;;;;13.65;8.93;;;;;;;2.89;78.20;95785.09;4914646;29;20062;-77
2021/01/01 10:27:10;;;;;;;33.83;19.35;;;;;;;2.91;78.31;95790.09;4923878;29;20043;-77
2021/01/01 10:29:37;;;;;;;15.80;9.27;;;;;;;2.93;78.00;95792.50;4923743;29;20367;-78
2021/01/01 10:32:05;;;;;;;10.18;6.57;;;;;;;2.93;78.33;95795.91;4922793;29;20111;-81
2021/01/01 10:34:31;;;;;;;10.20;6.57;;;;;;;2.94;77.93;95786.38;4916386;29;20136;-79
2021/01/01 10:36:58;;;;;;;10.23;7.10;;;;;;;2.96;78.21;95781.91;4909814;29;20055;-79
2021/01/01 10:39:26;;;;;;;10.43;7.82;;;;;;;2.96;77.71;95787.84;4905878;29;20462;-80
2021/01/01 10:41:52;;;;;;;11.65;7.10;;;;;;;2.98;78.06;95787.69;4905301;29;20053;-80
2021/01/01 10:44:19;;;;;;;8.35;6.45;;;;;;;2.97;77.73;95783.50;4905402;29;20132;-80
2021/01/01 10:46:49;;;;;;;9.30;6.80;;;;;;;2.98;77.86;95783.34;4904713;29;20052;-80
2021/01/01 10:49:15;;;;;;;9.18;6.88;;;;;;;3.01;78.09;95780.44;4904345;29;20059;-80
2021/01/01 10:51:42;;;;;;;9.38;6.82;;;;;;;3.00;77.66;95780.63;4905813;29;20048;-79
2021/01/01 10:54:08;;;;;;;9.70;6.57;;;;;;;2.99;77.70;95784.16;4904229;29;20504;-80
2021/01/01 10:56:36;;;;;;;7.40;5.93;;;;;;;2.96;77.74;95781.91;4905223;29;20067;-80
2021/01/01 10:59:19;;;;;;;8.18;6.05;;;;;;;2.99;77.77;95781.56;4906355;29;20089;-79
2021/01/01 11:01:46;;;;;;;7.13;5.30;;;;;;;2.99;77.46;95772.06;4906225;29;20427;-80
2021/01/01 11:04:12;;;;;;;6.18;5.50;;;;;;;2.99;77.47;95773.84;4906089;29;20107;-80
2021/01/01 11:06:40;;;;;;;7.53;5.43;;;;;;;3.00;77.36;95775.47;4905208;29;20052;-80
2021/01/01 11:09:06;;;;;;;6.00;4.35;;;;;;;3.00;76.96;95778.84;4904980;29;20074;-80
2021/01/01 11:11:33;;;;;;;6.25;4.85;;;;;;;3.02;76.83;95773.56;4905251;29;20068;-80
2021/01/01 11:14:05;;;;;;;6.45;4.97;;;;;;;3.04;76.54;95769.03;4903833;29;20076;-79
2021/01/01 12:23:01;;;;;;;8.00;5.95;;;;;;;3.15;75.06;95739.59;4902399;29;20501;-80
2021/01/01 12:25:28;;;;;;;6.30;5.13;;;;;;;3.18;75.38;95742.66;4902305;29;20080;-79
2021/01/01 12:27:58;;;;;;;6.50;5.10;;;;;;;3.19;75.22;95741.72;4902170;29;20063;-80
2021/01/01 12:30:26;;;;;;;5.60;4.75;;;;;;;3.21;75.01;95741.53;4901924;29;20052;-80
2021/01/01 12:45:16;;;;;;;6.65;4.85;;;;;;;3.25;74.76;95741.06;4924967;29;20056;-79
2021/01/01 12:51:29;;;;;;;6.68;5.18;;;;;;;3.27;74.25;95746.88;5090183;23;20053;-79
2021/01/01 13:04:17;;;;;;;5.95;5.35;;;;;;;3.30;74.73;95754.31;4924085;23;20059;-82
2021/01/01 13:06:45;;;;;;;6.95;5.68;;;;;;;3.28;74.91;95751.09;4903149;29;20055;-82
2021/01/01 13:09:11;;;;;;;7.13;5.28;;;;;;;3.27;75.05;95753.81;4902206;29;20055;-82
2021/01/01 13:11:43;;;;;;;5.55;4.75;;;;;;;3.25;74.57;95756.53;4902071;29;20056;-81
2021/01/01 13:14:10;;;;;;;6.93;5.97;;;;;;;3.25;74.60;95760.91;4901806;29;20457;-81
2021/01/01 13:16:36;;;;;;;6.05;5.00;;;;;;;3.24;74.26;95765.25;4901305;29;20056;-81
2021/01/01 13:19:03;;;;;;;6.38;4.68;;;;;;;3.24;74.26;95764.44;4901325;29;20053;-81
2021/01/01 13:21:31;;;;;;;8.68;5.63;;;;;;;3.25;74.14;95761.69;4902012;29;20056;-81
2021/01/01 13:24:00;;;;;;;7.28;5.90;;;;;;;3.25;73.94;95766.84;4902099;29;20048;-82
2021/01/01 13:26:28;;;;;;;7.00;5.85;;;;;;;3.26;73.85;95763.31;4901844;29;20048;-82
2021/01/01 13:28:56;;;;;;;6.80;5.32;;;;;;;3.24;73.52;95760.09;4901702;29;20068;-81
2021/01/01 13:31:33;;;;;;;6.22;5.07;;;;;;;3.22;74.28;95764.59;4901424;29;20052;-81
2021/01/01 13:34:00;;;;;;;6.65;5.28;;;;;;;3.24;74.40;95767.03;4901587;29;20081;-80
2021/01/01 13:36:27;;;;;;;6.97;5.55;;;;;;;3.24;74.26;95767.81;4901441;29;20052;-80
2021/01/01 13:38:54;;;;;;;7.53;4.72;;;;;;;3.26;74.34;95771.06;4900817;29;20469;-81
2021/01/01 13:41:21;;;;;;;5.70;5.03;;;;;;;3.26;73.85;95778.78;4901320;29;20045;-82
2021/01/01 13:43:48;;;;;;;6.65;5.40;;;;;;;3.27;74.03;95775.22;4902047;29;20055;-81
2021/01/01 13:46:20;;;;;;;7.10;5.25;;;;;;;3.27;73.61;95780.38;4901266;29;20048;-82
2021/01/01 13:48:47;;;;;;;6.10;5.47;;;;;;;3.29;73.65;95782.81;4901341;29;20056;-81
2021/01/01 13:51:13;;;;;;;6.35;4.50;;;;;;;3.29;73.48;95783.63;4900193;29;20053;-80
2021/01/01 13:53:40;;;;;;;8.10;5.50;;;;;;;3.29;73.73;95781.03;4901048;29;20509;-81
2021/01/01 13:56:06;;;;;;;7.25;5.30;;;;;;;3.30;73.53;95781.84;4900817;29;20075;-81
2021/01/01 13:58:34;;;;;;;6.57;5.35;;;;;;;3.28;73.41;95787.19;4901218;29;20511;-81
2021/01/01 14:01:00;;;;;;;5.82;5.00;;;;;;;3.32;73.16;95792.00;4900276;29;20150;-80
2021/01/01 14:03:27;;;;;;;6.60;5.25;;;;;;;3.32;73.44;95792.00;4900618;29;20058;-81
2021/01/01 14:06:06;;;;;;;7.15;5.57;;;;;;;3.33;73.21;95788.47;4900637;29;20056;-81
2021/01/01 14:08:32;;;;;;;6.20;5.25;;;;;;;3.35;73.81;95791.72;4901136;29;20068;-81
2021/01/01 14:11:00;;;;;;;5.57;4.80;;;;;;;3.36;73.45;95788.16;4900850;29;20060;-81
2021/01/01 14:13:29;;;;;;;5.55;4.95;;;;;;;3.36;72.83;95785.56;4901228;29;20060;-81
2021/01/01 14:15:56;;;;;;;6.78;5.10;;;;;;;3.30;73.19;95787.81;4901268;29;20067;-81
2021/01/01 14:18:24;;;;;;;7.28;5.55;;;;;;;3.29;72.95;95787.97;4901331;29;20104;-82
2021/01/01 14:20:51;;;;;;;6.70;5.15;;;;;;;3.28;73.20;95791.53;4900713;29;20068;-80
2021/01/01 14:23:17;;;;;;;7.47;5.95;;;;;;;3.27;73.87;95790.69;4900291;29;20062;-81
2021/01/01 14:25:44;;;;;;;6.57;5.68;;;;;;;3.27;73.98;95801.00;4900480;29;20053;-81
2021/01/01 14:28:10;;;;;;;6.85;5.13;;;;;;;3.28;74.24;95796.69;4899970;29;20534;-81
2021/01/01 14:30:38;;;;;;;6.65;5.60;;;;;;;3.29;74.39;95806.03;4899970;29;20067;-82
2021/01/01 14:33:06;;;;;;;7.50;5.50;;;;;;;3.28;74.08;95807.78;4899939;29;20052;-80
2021/01/01 14:35:33;;;;;;;6.68;5.65;;;;;;;3.28;73.93;95807.78;4900046;29;20056;-80
2021/01/01 14:38:00;;;;;;;6.93;5.72;;;;;;;3.25;73.76;95808.09;4899813;29;20063;-81
2021/01/01 14:40:27;;;;;;;6.38;5.20;;;;;;;3.23;73.54;95804.84;4899542;29;20063;-80
2021/01/01 14:42:58;;;;;;;7.47;5.90;;;;;;;3.22;73.86;95808.41;4899648;29;20048;-82
2021/01/01 14:45:25;;;;;;;6.70;5.45;;;;;;;3.19;73.91;95808.72;4900344;29;20096;-81
2021/01/01 14:47:52;;;;;;;6.40;5.47;;;;;;;3.17;73.57;95813.22;4900012;29;20057;-82
2021/01/01 14:50:20;;;;;;;6.25;5.57;;;;;;;3.16;74.21;95813.38;4899842;29;20052;-81
2021/01/01 14:52:47;;;;;;;7.95;6.43;;;;;;;3.16;74.54;95811.59;4899692;29;20108;-80
2021/01/01 14:55:16;;;;;;;10.00;6.07;;;;;;;3.15;74.62;95812.56;4899751;29;20119;-81
2021/01/01 14:57:43;;;;;;;8.50;6.80;;;;;;;3.14;74.44;95815.31;4901464;29;20052;-80
2021/01/01 15:00:11;;;;;;;8.27;5.90;;;;;;;3.13;74.18;95816.25;4922256;29;20096;-79
2021/01/01 15:02:37;;;;;;;8.55;6.50;;;;;;;3.12;74.06;95812.06;4922209;29;20100;-79
2021/01/01 15:05:05;;;;;;;7.57;5.75;;;;;;;3.07;73.72;95815.91;4920996;29;20589;-82
2021/01/01 15:07:32;;;;;;;8.25;7.22;;;;;;;3.06;74.40;95813.47;4905687;29;20060;-81
2021/01/01 15:10:00;;;;;;;8.68;6.72;;;;;;;3.08;74.54;95822.69;4901937;29;20405;-81
2021/01/01 15:12:27;;;;;;;7.72;6.53;;;;;;;3.08;74.14;95822.69;4901203;29;20057;-81
2021/01/01 15:14:54;;;;;;;7.75;6.75;;;;;;;3.08;74.46;95820.13;4900552;29;20048;-82
2021/01/01 15:17:20;;;;;;;13.50;9.20;;;;;;;3.10;74.98;95825.09;4900738;29;20076;-81
2021/01/01 15:19:48;;;;;;;33.25;18.55;;;;;;;3.13;74.94;95818.81;4899525;29;20083;-81
2021/01/01 15:22:16;;;;;;;17.45;10.68;;;;;;;3.13;75.02;95824.81;4900044;29;20049;-82
2021/01/01 15:24:43;;;;;;;11.50;8.02;;;;;;;3.13;74.57;95824.81;4899350;29;20064;-81
2021/01/01 15:27:10;;;;;;;9.18;7.25;;;;;;;3.12;75.03;95820.59;4899233;29;20060;-82
2021/01/01 15:29:36;;;;;;;7.80;6.07;;;;;;;3.13;75.02;95823.97;4899376;29;20057;-81
2021/01/01 15:32:03;;;;;;;7.85;6.68;;;;;;;3.14;74.81;95830.75;4899474;29;20044;-81
2021/01/01 15:34:30;;;;;;;7.53;6.40;;;;;;;3.12;74.66;95828.31;4899130;29;20044;-81
2021/01/01 15:36:56;;;;;;;8.90;7.28;;;;;;;3.13;74.69;95835.13;4899694;29;20056;-81
2021/01/01 15:39:24;;;;;;;8.10;7.30;;;;;;;3.12;74.65;95828.31;4901982;29;20075;-80
2021/01/01 15:41:52;;;;;;;8.27;6.72;;;;;;;3.12;74.08;95835.25;4908499;29;20057;-82
2021/01/01 15:44:19;;;;;;;8.77;6.38;;;;;;;3.12;74.15;95833.47;4904666;29;20068;-82
2021/01/01 15:46:45;;;;;;;9.27;7.25;;;;;;;3.12;74.46;95837.84;4901729;29;20063;-82
2021/01/01 15:49:12;;;;;;;9.95;7.13;;;;;;;3.11;74.40;95839.63;4899284;29;20052;-81
2021/01/01 15:51:39;;;;;;;9.52;7.90;;;;;;;3.11;74.01;95839.63;4897364;29;20056;-81
2021/01/01 15:54:05;;;;;;;10.27;7.78;;;;;;;3.09;74.11;95844.91;4898948;29;20130;-80
2021/01/01 15:56:32;;;;;;;9.13;6.95;;;;;;;3.10;73.97;95837.97;4897794;29;20060;-80
2021/01/01 15:58:59;;;;;;;9.57;7.65;;;;;;;3.11;74.56;95847.34;4899215;29;20059;-81
2021/01/01 16:01:26;;;;;;;11.60;8.82;;;;;;;3.13;74.51;95842.00;4897487;29;20052;-82
2021/01/01 16:03:52;;;;;;;9.45;7.80;;;;;;;3.12;74.29;95838.63;4897300;29;20052;-81
2021/01/01 16:06:19;;;;;;;9.82;7.93;;;;;;;3.12;74.56;95848.16;4897509;29;20056;-82
2021/01/01 16:09:05;;;;;;;10.40;8.40;;;;;;;3.08;74.32;95839.91;4907635;29;20078;-82
2021/01/01 16:16:58;;;;;;;10.35;8.38;;;;;;;3.01;74.85;95836.34;5591451;23;20036;-79
2021/01/01 16:19:25;;;;;;;9.55;7.47;;;;;;;2.98;74.61;95834.88;4916896;29;20496;-79
2021/01/01 16:21:52;;;;;;;9.85;8.20;;;;;;;2.97;75.30;95840.16;4888692;29;20053;-80
2021/01/01 16:24:19;;;;;;;11.38;8.05;;;;;;;2.99;75.43;95848.56;4873820;29;20068;-79
2021/01/01 16:26:49;;;;;;;10.52;8.40;;;;;;;3.00;75.38;95855.34;4881876;29;20046;-78
2021/01/01 16:29:17;;;;;;;12.18;8.05;;;;;;;3.00;75.38;95856.16;4893603;29;20033;-79
2021/01/01 16:31:44;;;;;;;11.43;8.30;;;;;;;3.01;75.02;95862.09;4902904;29;20108;-80
2021/01/01 16:34:14;;;;;;;11.43;8.55;;;;;;;3.01;74.89;95852.59;4898912;29;20045;-80
2021/01/01 16:36:41;;;;;;;10.18;7.70;;;;;;;3.03;75.20;95849.88;4892306;29;20080;-80
2021/01/01 16:39:09;;;;;;;9.73;8.05;;;;;;;3.04;75.24;95861.78;4878857;29;20053;-80
2021/01/01 16:41:37;;;;;;;10.98;8.63;;;;;;;3.04;74.95;95857.47;4879436;29;20540;-80
2021/01/01 16:44:07;;;;;;;12.63;9.18;;;;;;;3.01;74.64;95862.09;4878170;29;20045;-79
2021/01/01 16:46:34;;;;;;;13.52;9.15;;;;;;;3.00;75.66;95860.50;4884499;29;20049;-81
2021/01/01 16:49:01;;;;;;;12.63;9.55;;;;;;;2.99;75.13;95862.25;4894382;29;20041;-80
2021/01/01 16:51:35;;;;;;;14.50;9.85;;;;;;;2.96;75.06;95859.19;4903202;29;20033;-81
2021/01/01 16:54:03;;;;;;;11.98;8.93;;;;;;;2.98;75.13;95862.41;4897827;29;20057;-79
2021/01/01 16:56:29;;;;;;;13.85;10.18;;;;;;;2.98;75.55;95865.00;4883414;29;20159;-80
2021/01/01 16:58:56;;;;;;;12.80;10.00;;;;;;;2.97;75.09;95865.94;4887588;29;20049;-81
2021/01/01 17:01:25;;;;;;;12.65;9.65;;;;;;;2.97;75.49;95865.94;4880424;29;20140;-80
2021/01/01 17:03:51;;;;;;;12.70;9.55;;;;;;;2.96;75.01;95872.06;4886364;29;20432;-79
2021/01/01 17:06:20;;;;;;;13.90;10.68;;;;;;;2.96;75.16;95879.78;4879288;29;20057;-79
2021/01/01 17:08:48;;;;;;;15.00;11.05;;;;;;;2.95;74.89;95876.41;4879415;29;20433;-79
2021/01/01 17:11:15;;;;;;;16.20;11.10;;;;;;;2.94;75.03;95877.34;4879118;29;20109;-80
2021/01/01 17:13:42;;;;;;;15.20;10.88;;;;;;;2.94;75.07;95876.56;4882437;29;20057;-80
2021/01/01 17:16:08;;;;;;;13.35;9.77;;;;;;;2.95;75.53;95870.44;4888188;29;20057;-80
2021/01/01 17:18:35;;;;;;;14.35;10.80;;;;;;;2.94;75.29;95876.56;4887592;29;20053;-80
2021/01/01 17:21:01;;;;;;;13.77;9.10;;;;;;;2.93;75.09;95875.75;4863847;29;20061;-79
2021/01/01 17:23:28;;;;;;;14.98;11.13;;;;;;;2.91;74.91;95877.66;4860914;29;20053;-80
2021/01/01 17:25:55;;;;;;;14.40;10.25;;;;;;;2.89;74.78;95880.38;4871108;29;20065;-80
2021/01/01 17:28:22;;;;;;;14.23;9.88;;;;;;;2.89;74.75;95885.53;4864290;29;20079;-79
2021/01/01 17:31:05;;;;;;;13.80;10.38;;;;;;;2.89;74.95;95885.53;4864000;29;20072;-80
2021/01/01 17:33:32;;;;;;;14.25;10.52;;;;;;;2.88;75.09;95886.50;4863377;29;20514;-79
2021/01/01 17:35:58;;;;;;;14.90;11.00;;;;;;;2.88;74.95;95889.06;4865653;29;20092;-80
2021/01/01 17:38:26;;;;;;;14.80;11.05;;;;;;;2.86;75.34;95901.31;4873528;29;20042;-80
2021/01/01 17:40:53;;;;;;;14.02;10.27;;;;;;;2.87;75.33;95899.53;4884631;29;20042;-80
2021/01/01 17:45:56;;;;;;;13.85;10.80;;;;;;;2.87;75.21;95900.34;5467345;23;20117;-79
2021/01/01 18:20:42;;;;;;;13.50;10.50;;;;;;;2.85;75.21;95919.47;5073343;23;20049;-79
2021/01/01 18:23:26;;;;;;;14.75;10.57;;;;;;;2.86;75.33;95923.66;4901849;29;20052;-78
2021/01/01 18:25:53;;;;;;;17.77;12.30;;;;;;;2.85;75.56;95930.59;4900988;29;20049;-79
2021/01/01 18:28:19;;;;;;;17.05;12.43;;;;;;;2.82;75.40;95925.75;4906169;29;20067;-78
2021/01/01 18:30:48;;;;;;;17.40;11.45;;;;;;;2.80;75.46;95926.84;4905778;29;20052;-80
2021/01/01 18:33:20;;;;;;;17.15;11.98;;;;;;;2.78;75.83;95927.00;4903159;29;20052;-79
2021/01/01 18:35:54;;;;;;;14.35;10.38;;;;;;;2.78;75.81;95924.44;4900745;29;20056;-79
2021/01/01 18:38:23;;;;;;;16.50;10.60;;;;;;;2.80;76.12;95931.97;4899426;29;20056;-78
2021/01/01 18:40:50;;;;;;;14.68;10.35;;;;;;;2.79;75.73;95938.91;4899071;29;20060;-79
2021/01/01 18:43:25;;;;;;;13.68;10.60;;;;;;;2.80;76.03;95934.56;4899370;29;20045;-79
2021/01/01 18:45:52;;;;;;;13.70;10.05;;;;;;;2.82;76.06;95930.06;4899447;29;20056;-78
2021/01/01 18:48:27;;;;;;;14.40;10.85;;;;;;;2.81;76.31;95934.41;4899070;29;20052;-79
2021/01/01 18:50:55;;;;;;;15.50;11.60;;;;;;;2.82;75.84;95936.06;4899131;29;20078;-78
2021/01/01 18:53:25;;;;;;;14.95;11.25;;;;;;;2.83;76.10;95929.94;4898921;29;20052;-78
2021/01/01 18:56:11;;;;;;;18.10;13.45;;;;;;;2.85;75.96;95940.91;4899362;29;20108;-78
2021/01/01 18:58:46;;;;;;;18.50;12.80;;;;;;;2.83;75.63;95944.59;4914665;29;20032;-79
2021/01/01 19:01:16;;;;;;;19.80;13.30;;;;;;;2.80;75.76;95935.41;4900195;29;20053;-79
2021/01/01 19:04:22;;;;;;;21.77;15.52;;;;;;;2.78;76.06;95933.94;4903692;29;20066;-78
2021/01/01 19:07:03;;;;;;;21.20;13.65;;;;;;;2.77;76.25;95937.44;4899564;29;20044;-77
2021/01/01 19:09:37;;;;;;;20.42;13.35;;;;;;;2.78;76.38;95939.06;4899070;29;20052;-77
2021/01/01 19:12:06;;;;;;;19.60;13.45;;;;;;;2.77;76.07;95938.25;4899797;29;20057;-78
2021/01/01 19:14:36;;;;;;;19.35;13.55;;;;;;;2.76;76.18;95946.94;4899706;29;20084;-80
2021/01/01 19:21:41;;;;;;;19.60;14.98;;;;;;;2.68;76.24;95942.53;4901631;29;20055;-80
2021/01/01 19:27:48;;;;;;;16.05;12.25;;;;;;;2.62;76.79;95944.88;4921179;29;20056;-78
2021/01/01 19:33:38;;;;;;;17.80;13.70;;;;;;;2.64;77.15;95959.22;5034365;23;20064;-82
2021/01/01 19:40:29;;;;;;;16.27;12.45;;;;;;;2.63;76.62;95959.41;4901869;29;20060;-81
2021/01/01 19:43:27;;;;;;;16.52;11.52;;;;;;;2.53;76.57;95963.81;4900514;29;20055;-81
2021/01/01 19:46:48;;;;;;;15.57;11.25;;;;;;;2.42;76.92;95968.19;4880912;29;20481;-81
2021/01/01 19:49:55;;;;;;;16.55;12.25;;;;;;;2.34;77.20;95968.16;4879941;29;20061;-80
2021/01/01 19:52:25;;;;;;;31.70;15.05;;;;;;;2.27;76.99;95974.81;4881261;29;20135;-81
2021/01/01 19:55:02;;;;;;;26.23;14.05;;;;;;;2.22;76.96;95984.75;4880498;29;20052;-81
2021/01/01 19:58:19;;;;;;;31.38;14.23;;;;;;;2.17;77.50;95986.94;4880434;29;20064;-81
2021/01/01 20:08:26;;;;;;;24.23;16.65;;;;;;;2.00;77.82;95986.75;4880178;29;20137;-81
2021/01/01 20:11:03;;;;;;;28.92;19.73;;;;;;;1.99;77.18;95990.28;4893703;29;20139;-82
2021/01/01 20:16:43;;;;;;;25.45;16.13;;;;;;;1.99;78.22;95985.16;5298115;23;20147;-81